createdAt,value
2022-10-03T00:02:00.188Z,10.07
2022-10-03T00:04:47.624Z,7.53
2022-10-03T00:08:01.869Z,9.43
2022-10-03T00:10:49.906Z,7.38
2022-10-03T00:13:26.799Z,10.63
2022-10-03T00:16:18.850Z,12.65
2022-10-03T00:19:23.380Z,6.43
2022-10-03T00:21:56.683Z,10.13
2022-10-03T00:24:59.549Z,6.10
2022-10-03T00:27:40.611Z,9.05
2022-10-03T00:30:16.581Z,10.10
2022-10-03T00:33:15.114Z,12.32
2022-10-03T00:35:59.107Z,8.90
2022-10-03T00:38:48.290Z,10.25
2022-10-03T00:41:49.593Z,9.85
2022-10-03T00:44:38.083Z,9.68
2022-10-03T00:47:41.868Z,8.43
2022-10-03T00:50:33.660Z,8.77
2022-10-03T00:53:13.117Z,9.15
2022-10-03T00:56:04.506Z,8.38
2022-10-03T00:58:40.347Z,8.95
2022-10-03T01:01:34.205Z,12.63
2022-10-03T01:04:21.101Z,7.47
2022-10-03T01:07:17.618Z,10.98
2022-10-03T01:10:22.307Z,9.75
2022-10-03T01:12:54.751Z,7.90
2022-10-03T01:18:00.355Z,4.97
2022-10-03T01:20:39.513Z,9.00
2022-10-03T01:23:31.107Z,6.93
2022-10-03T01:26:26.647Z,13.52
2022-10-03T01:29:29.706Z,8.15
2022-10-03T01:32:02.500Z,11.10
2022-10-03T01:34:42.435Z,7.05
2022-10-03T01:37:49.360Z,6.60
2022-10-03T01:40:51.625Z,8.60
2022-10-03T01:43:42.124Z,8.40
2022-10-03T01:46:15.372Z,10.35
2022-10-03T01:49:29.223Z,16.15
2022-10-03T01:52:20.255Z,9.60
2022-10-03T01:55:00.567Z,9.70
2022-10-03T01:57:42.295Z,11.18
2022-10-03T02:00:17.695Z,9.52
2022-10-03T02:03:10.091Z,11.40
2022-10-03T02:06:14.044Z,9.77
2022-10-03T02:11:10.602Z,9.68
2022-10-03T02:14:07.288Z,7.20
2022-10-03T02:16:46.451Z,7.47
2022-10-03T02:19:29.740Z,6.82
2022-10-03T02:21:58.954Z,10.35
2022-10-03T02:24:31.288Z,9.85
2022-10-03T02:27:27.509Z,9.90
2022-10-03T02:30:41.442Z,8.52
2022-10-03T02:33:41.053Z,9.25
2022-10-03T02:36:49.227Z,7.38
2022-10-03T02:39:31.608Z,7.75
2022-10-03T02:42:25.185Z,9.00
2022-10-03T02:44:57.904Z,12.25
2022-10-03T02:47:24.538Z,8.85
2022-10-03T02:50:23.079Z,10.25
2022-10-03T02:53:01.353Z,10.68
2022-10-03T02:55:49.352Z,7.97
2022-10-03T02:59:08.971Z,7.00
2022-10-03T03:01:47.025Z,13.70
2022-10-03T03:04:28.618Z,3.92
2022-10-03T03:07:13.920Z,8.07
2022-10-03T03:09:58.807Z,12.10
2022-10-03T03:13:04.408Z,13.75
2022-10-03T03:15:57.994Z,16.17
2022-10-03T03:19:00.247Z,9.40
2022-10-03T03:21:35.055Z,10.40
2022-10-03T03:24:38.594Z,9.88
2022-10-03T03:27:29.885Z,9.48
2022-10-03T03:30:05.887Z,10.73
2022-10-03T03:33:07.516Z,9.45
2022-10-03T03:35:53.875Z,7.20
2022-10-03T03:38:31.534Z,7.70
2022-10-03T03:41:14.195Z,9.32
2022-10-03T03:44:06.448Z,13.45
2022-10-03T03:46:39.000Z,10.48
2022-10-03T03:49:43.287Z,9.82
2022-10-03T03:52:32.211Z,12.88
2022-10-03T03:55:27.682Z,8.48
2022-10-03T03:58:05.674Z,11.98
2022-10-03T04:00:55.384Z,9.45
2022-10-03T04:03:32.707Z,16.48
2022-10-03T04:06:26.175Z,7.18
2022-10-03T04:09:15.643Z,18.42
2022-10-03T04:12:10.133Z,10.43
2022-10-03T04:15:02.766Z,9.63
2022-10-03T04:18:15.422Z,7.72
2022-10-03T04:21:01.718Z,11.02
2022-10-03T04:24:08.704Z,12.38
2022-10-03T04:27:22.486Z,11.40
2022-10-03T04:30:10.366Z,12.02
2022-10-03T04:32:58.502Z,12.57
2022-10-03T04:35:45.509Z,8.43
2022-10-03T04:38:16.041Z,15.98
2022-10-03T04:41:11.556Z,7.65
2022-10-03T04:43:52.408Z,11.45
2022-10-03T04:46:43.318Z,8.07
2022-10-03T04:49:28.986Z,13.68
2022-10-03T04:52:18.337Z,8.27
2022-10-03T04:55:19.671Z,10.93
2022-10-03T04:58:23.508Z,14.43
2022-10-03T05:01:20.659Z,11.43
2022-10-03T05:03:54.329Z,8.02
2022-10-03T05:06:53.603Z,11.23
2022-10-03T05:09:23.629Z,9.27
2022-10-03T05:12:06.231Z,10.20
2022-10-03T05:14:49.770Z,8.52
2022-10-03T05:17:24.675Z,10.48
2022-10-03T05:20:13.786Z,13.70
2022-10-03T05:23:25.781Z,8.80
2022-10-03T05:26:43.092Z,9.32
2022-10-03T05:29:03.904Z,11.10
2022-10-03T05:31:49.199Z,7.55
2022-10-03T05:34:41.420Z,11.77
2022-10-03T05:37:29.895Z,10.35
2022-10-03T05:40:00.079Z,7.43
2022-10-03T05:42:56.065Z,10.68
2022-10-03T05:45:32.286Z,13.40
2022-10-03T05:48:13.980Z,12.52
2022-10-03T05:51:13.430Z,7.80
2022-10-03T05:54:25.049Z,10.73
2022-10-03T05:57:16.789Z,10.05
2022-10-03T06:00:01.241Z,7.72
2022-10-03T06:03:01.398Z,9.77
2022-10-03T06:05:56.638Z,11.98
2022-10-03T06:08:40.900Z,8.38
2022-10-03T06:11:07.495Z,11.88
2022-10-03T06:14:09.218Z,11.18
2022-10-03T06:16:48.539Z,11.95
2022-10-03T06:19:49.753Z,11.05
2022-10-03T06:22:51.117Z,10.70
2022-10-03T06:25:39.309Z,10.57
2022-10-03T06:28:24.907Z,9.23
2022-10-03T06:31:09.710Z,9.15
2022-10-03T06:33:45.458Z,8.27
2022-10-03T06:36:40.127Z,11.77
2022-10-03T06:39:34.363Z,15.18
2022-10-03T06:42:38.799Z,11.80
2022-10-03T06:45:20.947Z,7.22
2022-10-03T06:48:09.980Z,10.43
2022-10-03T06:50:41.107Z,10.75
2022-10-03T06:53:26.345Z,14.85
2022-10-03T06:56:27.900Z,7.70
2022-10-03T06:59:06.123Z,9.32
2022-10-03T07:02:16.319Z,9.43
2022-10-03T07:07:39.207Z,9.23
2022-10-03T07:10:26.668Z,8.35
2022-10-03T07:13:02.635Z,7.70
2022-10-03T07:16:21.055Z,11.07
2022-10-03T07:19:01.632Z,11.68
2022-10-03T07:21:28.377Z,14.45
2022-10-03T07:24:05.187Z,8.43
2022-10-03T07:26:31.770Z,12.20
2022-10-03T07:29:35.643Z,15.00
2022-10-03T07:35:54.606Z,14.68
2022-10-03T07:39:02.849Z,12.73
2022-10-03T07:41:41.743Z,12.68
2022-10-03T07:44:45.833Z,14.38
2022-10-03T07:47:39.873Z,13.60
2022-10-03T07:50:31.145Z,13.27
2022-10-03T07:55:39.078Z,10.05
2022-10-03T07:58:26.174Z,10.45
2022-10-03T08:00:58.563Z,10.80
2022-10-03T08:04:06.026Z,8.70
2022-10-03T08:06:45.397Z,11.82
2022-10-03T08:09:46.815Z,9.77
2022-10-03T08:12:40.391Z,10.02
2022-10-03T08:15:11.451Z,11.40
2022-10-03T08:17:38.091Z,10.98
2022-10-03T08:20:16.916Z,9.30
2022-10-03T08:23:08.544Z,9.32
2022-10-03T08:25:53.628Z,10.63
2022-10-03T08:28:34.121Z,9.73
2022-10-03T08:31:25.364Z,9.43
2022-10-03T08:34:19.833Z,13.05
2022-10-03T08:37:26.280Z,11.70
2022-10-03T08:40:40.218Z,10.60
2022-10-03T08:43:15.929Z,9.93
2022-10-03T08:46:25.492Z,7.00
2022-10-03T08:49:18.415Z,10.18
2022-10-03T08:51:53.155Z,11.70
2022-10-03T08:54:22.759Z,7.07
2022-10-03T08:57:06.187Z,8.32
2022-10-03T09:00:10.104Z,8.07
2022-10-03T09:03:13.704Z,11.07
2022-10-03T09:05:59.786Z,15.18
2022-10-03T09:08:29.111Z,8.90
2022-10-03T09:11:01.544Z,11.00
2022-10-03T09:13:51.180Z,8.57
2022-10-03T09:16:35.326Z,9.68
2022-10-03T09:19:16.753Z,11.48
2022-10-03T09:22:31.827Z,9.25
2022-10-03T09:25:20.104Z,11.82
2022-10-03T09:27:55.941Z,12.65
2022-10-03T09:30:43.953Z,9.95
2022-10-03T09:33:29.375Z,10.02
2022-10-03T09:36:53.766Z,9.50
2022-10-03T09:39:41.806Z,6.32
2022-10-03T09:42:20.276Z,16.08
2022-10-03T09:45:24.376Z,9.45
2022-10-03T09:48:32.720Z,6.05
2022-10-03T09:51:09.305Z,10.00
2022-10-03T09:53:48.776Z,9.80
2022-10-03T09:56:39.711Z,10.10
2022-10-03T09:59:43.732Z,10.82
2022-10-03T10:02:32.020Z,7.70
2022-10-03T10:05:25.693Z,10.00
2022-10-03T10:08:28.491Z,12.32
2022-10-03T10:11:01.331Z,9.13
2022-10-03T10:13:36.248Z,7.03
2022-10-03T10:16:50.127Z,6.20
2022-10-03T10:19:44.337Z,11.85
2022-10-03T10:22:32.164Z,7.10
2022-10-03T10:25:01.971Z,10.35
2022-10-03T10:28:26.076Z,7.20
2022-10-03T10:31:22.628Z,9.60
2022-10-03T10:34:10.880Z,7.05
2022-10-03T10:36:59.309Z,9.70
2022-10-03T10:39:46.899Z,6.90
2022-10-03T10:42:45.151Z,7.60
2022-10-03T10:45:39.345Z,6.95
2022-10-03T10:48:16.875Z,6.65
2022-10-03T10:50:52.591Z,10.48
2022-10-03T10:53:50.201Z,7.25
2022-10-03T10:56:36.868Z,5.07
2022-10-03T10:59:53.975Z,9.07
2022-10-03T11:02:35.924Z,5.55
2022-10-03T11:05:36.912Z,5.75
2022-10-03T11:08:34.829Z,4.53
2022-10-03T11:11:29.030Z,7.35
2022-10-03T11:14:18.796Z,5.35
2022-10-03T11:17:38.999Z,7.25
2022-10-03T11:20:32.632Z,4.25
2022-10-03T11:23:34.023Z,6.47
2022-10-03T11:26:22.393Z,5.18
2022-10-03T11:29:27.306Z,4.00
2022-10-03T11:32:32.360Z,4.78
2022-10-03T11:35:29.101Z,4.32
2022-10-03T11:38:04.943Z,3.72
2022-10-03T11:40:42.000Z,3.47
2022-10-03T11:43:53.003Z,2.63
2022-10-03T11:46:41.157Z,5.50
2022-10-03T11:49:28.432Z,5.65
2022-10-03T11:52:27.861Z,3.92
2022-10-03T11:55:25.474Z,2.60
2022-10-03T11:58:03.109Z,5.57
2022-10-03T12:00:34.548Z,5.10
2022-10-03T12:03:17.385Z,6.30
2022-10-03T12:05:49.946Z,5.28
2022-10-03T12:08:51.026Z,2.78
2022-10-03T12:11:38.645Z,5.88
2022-10-03T12:14:31.040Z,9.68
2022-10-03T12:17:17.858Z,6.22
2022-10-03T12:20:32.184Z,5.60
2022-10-03T12:22:58.813Z,8.52
2022-10-03T12:25:30.173Z,4.50
2022-10-03T12:28:42.262Z,5.88
2022-10-03T12:31:31.088Z,4.65
2022-10-03T12:34:03.548Z,2.90
2022-10-03T12:36:43.524Z,7.22
2022-10-03T12:39:37.870Z,3.75
2022-10-03T12:42:05.116Z,7.63
2022-10-03T12:44:34.583Z,5.22
2022-10-03T12:47:43.852Z,6.63
2022-10-03T12:50:27.999Z,7.13
2022-10-03T12:53:23.898Z,4.65
2022-10-03T12:56:01.888Z,4.32
2022-10-03T12:59:04.702Z,5.05
2022-10-03T13:02:16.434Z,7.55
2022-10-03T13:05:11.870Z,6.18
2022-10-03T13:08:03.328Z,5.78
2022-10-03T13:10:43.548Z,7.95
2022-10-03T13:13:23.033Z,8.02
2022-10-03T13:16:05.924Z,6.88
2022-10-03T13:18:48.010Z,5.97
2022-10-03T13:21:46.009Z,5.45
2022-10-03T13:24:40.027Z,7.10
2022-10-03T13:27:32.289Z,6.20
2022-10-03T13:30:06.387Z,5.95
2022-10-03T13:32:37.787Z,6.88
2022-10-03T13:35:45.105Z,4.82
2022-10-03T13:38:31.813Z,5.72
2022-10-03T13:41:07.417Z,6.85
2022-10-03T13:43:38.529Z,10.38
2022-10-03T13:46:26.816Z,10.15
2022-10-03T13:49:02.174Z,6.35
2022-10-03T13:51:39.831Z,6.47
2022-10-03T13:54:22.035Z,4.05
2022-10-03T13:56:59.730Z,10.38
2022-10-03T13:59:50.880Z,5.75
2022-10-03T14:02:44.842Z,3.80
2022-10-03T14:05:37.208Z,7.00
2022-10-03T14:08:30.715Z,4.97
2022-10-03T14:11:43.673Z,6.70
2022-10-03T14:14:13.951Z,5.72
2022-10-03T14:16:42.747Z,5.68
2022-10-03T14:19:39.189Z,6.55
2022-10-03T14:22:11.262Z,5.50
2022-10-03T14:25:03.639Z,6.00
2022-10-03T14:27:52.780Z,5.53
2022-10-03T14:31:05.104Z,6.57
2022-10-03T14:33:56.444Z,6.38
2022-10-03T14:36:47.297Z,5.95
2022-10-03T14:39:36.357Z,6.55
2022-10-03T14:42:18.979Z,4.95
2022-10-03T14:44:54.309Z,5.30
2022-10-03T14:47:22.140Z,9.25
2022-10-03T14:49:59.175Z,3.45
2022-10-03T14:52:44.444Z,4.07
2022-10-03T14:55:18.953Z,4.50
2022-10-03T14:58:09.691Z,3.88
2022-10-03T15:00:43.657Z,5.03
2022-10-03T15:03:38.082Z,6.72
2022-10-03T15:06:11.030Z,2.97
2022-10-03T15:08:53.994Z,3.17
2022-10-03T15:11:27.331Z,7.00
2022-10-03T15:14:02.526Z,6.72
2022-10-03T15:16:34.520Z,5.88
2022-10-03T15:19:17.776Z,4.68
2022-10-03T15:21:47.438Z,5.80
2022-10-03T15:24:28.452Z,3.35
2022-10-03T15:27:01.617Z,7.72
2022-10-03T15:29:30.884Z,7.90
2022-10-03T15:31:58.736Z,4.82
2022-10-03T15:34:33.412Z,5.75
2022-10-03T15:37:10.899Z,4.70
2022-10-03T15:39:43.964Z,3.30
2022-10-03T15:42:10.635Z,7.00
2022-10-03T15:45:03.825Z,4.60
2022-10-03T15:47:34.809Z,4.00
2022-10-03T15:50:13.238Z,5.10
2022-10-03T15:53:12.353Z,5.30
2022-10-03T15:55:54.584Z,6.70
2022-10-03T15:58:36.196Z,3.20
2022-10-03T16:01:20.724Z,5.63
2022-10-03T16:03:50.316Z,3.97
2022-10-03T16:06:39.791Z,5.25
2022-10-03T16:09:17.777Z,6.13
2022-10-03T16:11:58.620Z,7.78
2022-10-03T16:14:35.744Z,6.40
2022-10-03T16:17:15.801Z,8.50
2022-10-03T16:20:05.854Z,6.20
2022-10-03T16:22:44.794Z,7.45
2022-10-03T16:25:48.358Z,5.80
2022-10-03T16:28:20.220Z,6.93
2022-10-03T16:30:52.481Z,8.55
2022-10-03T16:33:27.486Z,5.35
2022-10-03T16:35:58.149Z,8.98
2022-10-03T16:38:27.603Z,8.45
2022-10-03T16:41:01.953Z,9.02
2022-10-03T16:43:32.059Z,10.55
2022-10-03T16:46:16.358Z,8.20
2022-10-03T16:49:02.974Z,7.60
2022-10-03T16:51:46.435Z,10.98
2022-10-03T16:54:18.895Z,11.82
2022-10-03T16:56:54.871Z,9.38
2022-10-03T16:59:23.860Z,10.93
2022-10-03T17:01:57.388Z,12.75
2022-10-03T17:04:30.358Z,7.78
2022-10-03T17:07:06.398Z,11.00
2022-10-03T17:09:48.457Z,8.18
2022-10-03T17:12:57.058Z,9.48
2022-10-03T17:15:30.933Z,10.27
2022-10-03T17:18:26.819Z,11.32
2022-10-03T17:21:08.238Z,8.45
2022-10-03T17:23:49.266Z,6.93
2022-10-03T17:26:39.309Z,6.20
2022-10-03T17:29:21.144Z,8.77
2022-10-03T17:32:02.361Z,5.88
2022-10-03T17:35:12.524Z,8.73
2022-10-03T17:40:36.508Z,7.25
2022-10-03T17:45:54.226Z,7.95
2022-10-03T17:48:43.407Z,7.65
2022-10-03T17:51:35.054Z,4.60
2022-10-03T17:54:06.070Z,6.70
2022-10-03T17:56:34.927Z,4.97
2022-10-03T17:59:12.825Z,4.40
2022-10-03T18:01:51.296Z,5.05
2022-10-03T18:04:39.050Z,8.75
2022-10-03T18:07:25.027Z,8.90
2022-10-03T18:09:54.653Z,6.63
2022-10-03T18:12:35.008Z,5.90
2022-10-03T18:15:27.752Z,11.95
2022-10-03T18:18:19.191Z,7.82
2022-10-03T18:20:58.700Z,8.43
2022-10-03T18:23:56.390Z,7.18
2022-10-03T18:26:36.938Z,6.10
2022-10-03T18:29:19.094Z,6.22
2022-10-03T18:31:57.407Z,8.70
2022-10-03T18:34:34.499Z,8.07
2022-10-03T18:37:16.732Z,9.05
2022-10-03T18:39:44.777Z,7.80
2022-10-03T18:42:12.052Z,6.95
2022-10-03T18:44:44.944Z,8.15
2022-10-03T18:47:20.543Z,8.82
2022-10-03T18:50:19.271Z,11.48
2022-10-03T18:52:53.543Z,11.02
2022-10-03T18:55:37.694Z,10.38
2022-10-03T18:58:05.854Z,12.05
2022-10-03T19:00:42.725Z,12.43
2022-10-03T19:03:16.956Z,12.43
2022-10-03T19:06:03.332Z,10.55
2022-10-03T19:08:43.831Z,10.60
2022-10-03T19:11:14.103Z,10.50
2022-10-03T19:13:48.457Z,11.10
2022-10-03T19:16:35.399Z,10.23
2022-10-03T19:21:41.213Z,14.30
2022-10-03T19:24:34.435Z,10.68
2022-10-03T19:27:14.686Z,14.60
2022-10-03T19:29:47.959Z,13.60
2022-10-03T19:32:31.272Z,11.52
2022-10-03T19:35:04.919Z,13.52
2022-10-03T19:37:45.294Z,14.20
2022-10-03T19:40:34.711Z,18.58
2022-10-03T19:43:24.159Z,13.45
2022-10-03T19:46:01.067Z,14.93
2022-10-03T19:48:32.274Z,15.13
2022-10-03T19:51:10.411Z,15.38
2022-10-03T19:53:42.632Z,16.50
2022-10-03T19:56:15.359Z,13.52
2022-10-03T19:58:46.252Z,18.13
2022-10-03T20:01:13.703Z,14.90
2022-10-03T20:03:52.395Z,15.88
2022-10-03T20:06:22.609Z,15.40
2022-10-03T20:09:02.441Z,13.63
2022-10-03T20:11:49.313Z,13.43
2022-10-03T20:14:27.053Z,12.70
2022-10-03T20:17:04.494Z,15.35
2022-10-03T20:19:56.572Z,12.50
2022-10-03T20:22:33.566Z,13.38
2022-10-03T20:25:01.015Z,11.25
2022-10-03T20:27:27.722Z,13.50
2022-10-03T20:30:23.433Z,20.17
2022-10-03T20:32:51.722Z,16.75
2022-10-03T20:35:23.659Z,15.48
2022-10-03T20:37:50.259Z,13.73
2022-10-03T20:40:42.253Z,12.90
2022-10-03T20:43:41.339Z,16.60
2022-10-03T20:46:26.287Z,15.30
2022-10-03T20:49:11.504Z,13.38
2022-10-03T20:51:51.837Z,12.30
2022-10-03T20:54:21.015Z,14.00
2022-10-03T20:57:14.512Z,11.05
2022-10-03T21:00:11.453Z,13.95
2022-10-03T21:02:52.948Z,12.00
2022-10-03T21:05:36.263Z,11.02
2022-10-03T21:08:20.028Z,13.38
2022-10-03T21:10:58.401Z,11.85
2022-10-03T21:13:33.033Z,13.20
2022-10-03T21:16:02.817Z,11.82
2022-10-03T21:18:40.082Z,10.75
2022-10-03T21:21:18.910Z,12.32
2022-10-03T21:26:25.875Z,12.90
2022-10-03T21:29:24.492Z,11.40
2022-10-03T21:32:20.235Z,9.60
2022-10-03T21:35:02.435Z,12.02
2022-10-03T21:37:42.559Z,12.65
2022-10-03T21:40:25.048Z,13.93
2022-10-03T21:43:20.491Z,14.25
2022-10-03T21:46:01.601Z,11.65
2022-10-03T21:48:41.819Z,10.88
2022-10-03T21:51:19.605Z,11.98
2022-10-03T21:54:03.752Z,11.57
2022-10-03T21:56:46.267Z,11.30
2022-10-03T21:59:41.315Z,8.52
2022-10-03T22:02:20.953Z,8.82
2022-10-03T22:04:49.822Z,11.25
2022-10-03T22:07:38.113Z,12.02
2022-10-03T22:10:21.841Z,9.43
2022-10-03T22:12:52.428Z,9.07
2022-10-03T22:15:27.964Z,11.23
2022-10-03T22:18:05.275Z,8.30
2022-10-03T22:20:33.824Z,8.88
2022-10-03T22:23:09.358Z,8.27
2022-10-03T22:25:54.348Z,10.35
2022-10-03T22:28:45.738Z,12.07
2022-10-03T22:31:34.416Z,9.82
2022-10-03T22:34:28.859Z,8.27
2022-10-03T22:36:55.965Z,16.15
2022-10-03T22:39:23.016Z,12.45
2022-10-03T22:41:54.386Z,11.55
2022-10-03T22:44:25.541Z,12.05
2022-10-03T22:46:56.494Z,13.82
2022-10-03T22:49:33.105Z,10.65
2022-10-03T22:52:03.653Z,14.75
2022-10-03T22:54:35.136Z,14.35
2022-10-03T22:57:07.121Z,9.90
2022-10-03T22:59:42.333Z,11.43
2022-10-03T23:02:10.063Z,11.57
2022-10-03T23:04:57.378Z,10.73
2022-10-03T23:08:18.060Z,11.90
2022-10-03T23:11:01.571Z,10.68
2022-10-03T23:13:43.647Z,10.27
2022-10-03T23:16:47.436Z,9.60
2022-10-03T23:19:38.639Z,9.25
2022-10-03T23:22:12.393Z,9.73
2022-10-03T23:24:44.516Z,9.65
2022-10-03T23:27:29.445Z,8.88
2022-10-03T23:30:16.934Z,10.05
2022-10-03T23:32:46.578Z,9.57
2022-10-03T23:35:30.763Z,10.38
2022-10-03T23:38:01.158Z,8.57
2022-10-03T23:40:29.525Z,8.55
2022-10-03T23:43:37.076Z,8.07
2022-10-03T23:46:10.404Z,11.60
2022-10-03T23:48:46.420Z,9.55
2022-10-03T23:51:17.799Z,9.27
2022-10-03T23:53:52.817Z,7.28
2022-10-03T23:56:22.462Z,10.73
2022-10-03T23:59:14.460Z,8.82
